Time;durP1;ratioP1;P1;durP2;ratioP2;P2;SDS_P1;SDS_P2;PMS_P1;PMS_P2;Temp;Humidity;BMP_temperature;BMP_pressure;BME280_temperature;BME280_humidity;BME280_pressure;Samples;Min_cycle;Max_cycle;Signal;HPM_P1;HPM_P2
2024/03/16 00:00:57;;;;;;;16.23;10.15;;;;;;;8.66;86.74;99973.25;5089796;28;20404;-39
2024/03/16 00:03:23;;;;;;;16.20;9.77;;;;;;;8.69;87.13;99984.34;5090004;28;20169;-39
2024/03/16 00:05:48;;;;;;;17.15;9.85;;;;;;;8.62;88.12;99978.13;5089845;28;20099;-39
2024/03/16 00:08:13;;;;;;;16.40;9.82;;;;;;;8.88;86.68;99976.81;5089715;28;20103;-39
2024/03/16 00:10:39;;;;;;;18.08;10.05;;;;;;;8.76;86.73;99982.59;5089651;28;20082;-39
2024/03/16 00:13:06;;;;;;;17.83;9.52;;;;;;;8.62;87.39;99980.75;5089781;28;20032;-39
2024/03/16 00:15:32;;;;;;;15.85;8.93;;;;;;;8.67;87.21;99980.22;5089674;28;20485;-38
2024/03/16 00:17:57;;;;;;;16.60;9.73;;;;;;;8.63;87.61;99978.97;5087893;28;20024;-38
2024/03/16 00:20:25;;;;;;;18.58;9.77;;;;;;;8.56;87.26;99974.38;5089587;28;20044;-38
2024/03/16 00:22:51;;;;;;;17.67;10.30;;;;;;;8.78;87.20;99983.22;5089460;28;20024;-38
2024/03/16 00:25:17;;;;;;;14.65;9.70;;;;;;;8.63;86.60;99973.66;5089405;28;20024;-36
2024/03/16 00:27:43;;;;;;;16.88;9.35;;;;;;;8.61;86.97;99972.00;5093152;28;20012;-39
2024/03/16 00:30:10;;;;;;;16.10;10.05;;;;;;;8.69;86.29;99972.91;5093526;28;20096;-39
2024/03/16 00:32:36;;;;;;;16.35;10.57;;;;;;;8.60;86.85;99974.81;5093344;28;20103;-39
2024/03/16 00:35:03;;;;;;;20.73;11.23;;;;;;;8.60;86.20;99978.31;5093196;28;20020;-39
2024/03/16 00:37:28;;;;;;;22.75;10.40;;;;;;;8.51;86.47;99979.44;5092637;28;20488;-39
2024/03/16 00:39:54;;;;;;;17.55;10.10;;;;;;;8.49;86.75;99968.19;5091611;28;20036;-39
2024/03/16 00:42:20;;;;;;;20.17;11.00;;;;;;;8.64;86.33;99969.97;5093337;28;20023;-39
2024/03/16 00:44:45;;;;;;;19.85;9.70;;;;;;;8.70;85.27;99971.88;5092689;28;20432;-39
2024/03/16 00:47:10;;;;;;;17.95;9.80;;;;;;;8.67;85.28;99973.09;5093055;28;20024;-38
2024/03/16 00:49:36;;;;;;;15.40;10.10;;;;;;;8.47;86.61;99964.03;5093068;28;20016;-40
2024/03/16 00:52:02;;;;;;;18.20;10.50;;;;;;;8.58;85.60;99967.03;5092950;28;20107;-39
2024/03/16 00:54:27;;;;;;;17.48;10.43;;;;;;;8.49;86.35;99956.72;5093279;28;20099;-38
2024/03/16 00:56:53;;;;;;;17.67;9.40;;;;;;;8.38;86.47;99958.00;5093054;28;20104;-38
2024/03/16 00:59:18;;;;;;;15.10;9.82;;;;;;;8.78;85.68;99971.78;5092849;28;20044;-37
2024/03/16 01:01:44;;;;;;;17.15;9.80;;;;;;;8.54;85.02;99957.81;5092843;28;20506;-38
2024/03/16 01:04:10;;;;;;;19.08;10.20;;;;;;;8.42;85.51;99964.59;5093278;28;20213;-39
2024/03/16 01:06:35;;;;;;;15.60;9.82;;;;;;;8.27;87.34;99969.06;5093035;28;20592;-37
2024/03/16 01:09:01;;;;;;;19.13;10.25;;;;;;;8.46;85.97;99957.13;5092691;28;20020;-37
2024/03/16 01:11:26;;;;;;;15.32;9.68;;;;;;;8.60;84.20;99957.09;5092978;28;20487;-39
2024/03/16 01:13:52;;;;;;;18.15;10.15;;;;;;;8.45;84.94;99958.91;5092783;28;20020;-37
2024/03/16 01:16:18;;;;;;;16.05;9.82;;;;;;;8.22;85.42;99962.47;5092744;28;20036;-39
2024/03/16 01:18:43;;;;;;;19.40;9.77;;;;;;;8.38;84.49;99964.13;5092560;28;20094;-38
2024/03/16 01:21:10;;;;;;;18.13;10.13;;;;;;;8.31;84.42;99967.69;5092069;28;20125;-38
2024/03/16 01:23:35;;;;;;;19.40;10.25;;;;;;;8.13;85.03;99960.94;5092677;28;20098;-38
2024/03/16 01:26:00;;;;;;;15.40;9.85;;;;;;;8.21;84.16;99965.31;5092695;28;20522;-38
2024/03/16 01:28:26;;;;;;;17.20;10.38;;;;;;;8.01;84.13;99965.84;5092088;28;20027;-42
2024/03/16 01:30:52;;;;;;;19.95;10.90;;;;;;;7.94;85.61;99970.22;5092400;28;20020;-39
2024/03/16 01:33:18;;;;;;;16.90;11.15;;;;;;;7.94;85.60;99966.72;5093176;28;20020;-37
2024/03/16 01:35:43;;;;;;;19.73;11.13;;;;;;;7.77;86.28;99966.91;5093026;28;20028;-37
2024/03/16 01:38:09;;;;;;;18.35;11.20;;;;;;;7.62;87.74;99969.50;5091953;28;20067;-38
2024/03/16 01:40:34;;;;;;;17.60;10.88;;;;;;;7.55;88.13;99965.09;5092535;28;20121;-38
2024/03/16 01:42:59;;;;;;;18.05;11.15;;;;;;;7.67;87.99;99974.25;5092344;28;20028;-37
2024/03/16 01:45:25;;;;;;;18.30;10.88;;;;;;;7.64;87.92;99964.84;5092450;28;20439;-38
2024/03/16 01:47:52;;;;;;;16.70;11.07;;;;;;;8.02;85.99;99962.19;5092662;28;20085;-38
2024/03/16 01:50:23;;;;;;;18.75;11.05;;;;;;;7.55;87.24;99957.97;5092570;28;20016;-38
2024/03/16 01:52:49;;;;;;;19.42;11.93;;;;;;;7.77;87.81;99961.59;5092619;28;20503;-39
2024/03/16 01:55:15;;;;;;;21.88;11.93;;;;;;;7.60;87.99;99973.34;5091118;28;20036;-38
2024/03/16 01:57:41;;;;;;;19.55;11.80;;;;;;;7.43;89.53;99970.81;5092513;28;20039;-37
2024/03/16 02:00:11;;;;;;;19.67;12.90;;;;;;;7.61;90.30;99969.69;5092537;28;20016;-39
2024/03/16 02:02:37;;;;;;;22.10;13.23;;;;;;;8.41;87.46;99970.88;5092326;28;20514;-37
2024/03/16 02:05:06;;;;;;;21.30;12.70;;;;;;;8.22;86.44;99975.75;5091977;28;20024;-39
2024/03/16 02:07:36;;;;;;;20.88;12.13;;;;;;;7.66;87.07;99975.28;5092053;28;20024;-38
2024/03/16 02:10:04;;;;;;;19.42;12.15;;;;;;;7.18;90.31;99972.84;5092104;28;20119;-38
2024/03/16 02:12:30;;;;;;;21.10;11.98;;;;;;;7.34;89.79;99968.41;5091991;28;20030;-39
2024/03/16 02:14:55;;;;;;;18.60;12.32;;;;;;;7.13;91.12;99961.13;5092027;28;20115;-36
2024/03/16 02:17:21;;;;;;;21.27;12.45;;;;;;;7.12;91.70;99975.34;5091847;28;20024;-39
2024/03/16 02:19:47;;;;;;;20.42;12.50;;;;;;;7.12;92.43;99973.53;5091757;28;20045;-38
2024/03/16 02:22:16;;;;;;;23.23;12.55;;;;;;;6.99;93.29;99978.56;5091810;28;20361;-37
2024/03/16 02:24:44;;;;;;;34.65;19.42;;;;;;;7.56;92.60;99980.00;5091969;28;20121;-40
2024/03/16 02:27:09;;;;;;;36.13;20.73;;;;;;;7.71;91.06;99978.22;5091581;28;20035;-38
2024/03/16 02:29:36;;;;;;;25.33;14.07;;;;;;;7.38;91.24;99975.81;5091638;28;20095;-39
2024/03/16 02:32:05;;;;;;;23.00;12.45;;;;;;;7.47;90.85;99975.78;5091420;28;20031;-39
2024/03/16 02:34:38;;;;;;;19.30;11.25;;;;;;;7.40;90.13;99979.09;5091523;28;20027;-38
2024/03/16 02:37:04;;;;;;;20.23;12.32;;;;;;;7.11;91.24;99979.00;5091119;28;20097;-39
2024/03/16 02:39:33;;;;;;;21.58;12.32;;;;;;;7.37;90.55;99978.66;5091639;28;20476;-39
2024/03/16 02:42:03;;;;;;;19.42;11.52;;;;;;;7.47;90.27;99986.38;5091612;28;20048;-39
2024/03/16 02:44:29;;;;;;;19.73;11.85;;;;;;;7.32;89.94;99986.31;5091279;28;20069;-38
2024/03/16 02:46:55;;;;;;;18.27;11.30;;;;;;;7.52;89.38;99989.28;5091513;28;20028;-36
2024/03/16 02:49:21;;;;;;;19.73;11.60;;;;;;;7.31;89.76;99982.84;5090564;28;20472;-39
2024/03/16 02:51:47;;;;;;;17.83;10.63;;;;;;;7.12;90.90;99986.78;5091307;28;20032;-38
2024/03/16 02:54:13;;;;;;;19.50;10.43;;;;;;;7.03;91.45;99982.53;5091517;28;20120;-38
2024/03/16 02:56:38;;;;;;;21.83;11.25;;;;;;;7.29;90.86;99991.94;5091439;28;20505;-37
2024/03/16 02:59:05;;;;;;;19.65;11.45;;;;;;;6.98;92.29;99984.84;5090043;28;20106;-38
2024/03/16 03:01:31;;;;;;;17.95;11.00;;;;;;;6.82;92.82;99994.53;5091372;28;20054;-39
2024/03/16 03:03:57;;;;;;;17.15;11.15;;;;;;;6.81;93.16;99992.88;5091429;28;20133;-38
2024/03/16 03:06:25;;;;;;;17.88;11.23;;;;;;;6.93;91.96;99995.13;5091324;28;20020;-39
2024/03/16 03:08:50;;;;;;;20.88;11.32;;;;;;;6.90;92.32;99993.66;5091464;28;20128;-38
2024/03/16 03:11:16;;;;;;;19.73;11.80;;;;;;;6.98;92.81;99998.91;5090869;28;20061;-39
2024/03/16 03:13:41;;;;;;;19.90;12.13;;;;;;;6.99;91.90;99997.91;5090755;28;20095;-39
2024/03/16 03:16:06;;;;;;;21.48;13.50;;;;;;;6.91;91.03;99999.78;5091141;28;20107;-39
2024/03/16 03:18:32;;;;;;;21.90;12.30;;;;;;;6.89;90.31;100002.59;5090742;28;20020;-38
2024/03/16 03:21:00;;;;;;;23.88;13.30;;;;;;;6.84;89.99;100008.41;5090688;28;20020;-39
2024/03/16 03:23:25;;;;;;;24.48;14.05;;;;;;;6.66;91.24;100013.09;5091081;28;20102;-37
2024/03/16 03:25:51;;;;;;;23.05;14.02;;;;;;;6.84;91.25;100015.53;5090774;28;20132;-35
2024/03/16 03:28:16;;;;;;;27.15;14.52;;;;;;;6.86;89.35;100010.88;5090638;28;20031;-37
2024/03/16 03:30:42;;;;;;;28.23;14.55;;;;;;;6.99;89.06;100020.91;5090818;28;20031;-38
2024/03/16 03:33:09;;;;;;;26.25;14.48;;;;;;;6.93;89.17;100022.44;5090095;28;20028;-38
2024/03/16 03:35:35;;;;;;;24.42;13.65;;;;;;;6.71;89.47;100031.13;5090823;28;20080;-38
2024/03/16 03:38:02;;;;;;;22.52;13.02;;;;;;;6.38;91.70;100032.03;5090400;28;20040;-38
2024/03/16 03:40:27;;;;;;;22.45;13.60;;;;;;;6.34;93.03;100037.81;5090494;28;20078;-39
2024/03/16 03:42:55;;;;;;;23.75;14.00;;;;;;;6.41;93.33;100033.53;5090453;28;20484;-38
2024/03/16 03:50:57;;;;;;;21.13;12.23;;;;;;;6.07;95.06;100040.69;5090345;28;20035;-38
2024/03/16 03:53:25;;;;;;;22.40;13.20;;;;;;;6.01;95.82;100041.34;5090278;28;20025;-37
2024/03/16 03:55:50;;;;;;;24.83;13.45;;;;;;;6.24;94.35;100033.56;5089470;28;20024;-40
2024/03/16 03:58:16;;;;;;;23.65;13.38;;;;;;;6.43;93.41;100034.16;5090826;28;20027;-38
2024/03/16 04:00:45;;;;;;;24.25;13.00;;;;;;;6.23;94.43;100034.56;5092274;28;20081;-38
2024/03/16 04:03:10;;;;;;;21.23;12.82;;;;;;;6.50;92.40;100029.03;5094810;28;20023;-39
2024/03/16 04:05:36;;;;;;;25.45;13.73;;;;;;;6.20;93.70;100045.44;5094432;28;20032;-38
2024/03/16 04:08:02;;;;;;;32.88;16.13;;;;;;;6.20;93.72;100048.09;5094387;28;20388;-39
2024/03/16 04:10:27;;;;;;;23.05;13.90;;;;;;;6.06;96.09;100038.22;5094898;28;20489;-39
2024/03/16 04:12:54;;;;;;;27.27;13.77;;;;;;;6.50;94.59;100043.09;5094534;28;20028;-40
2024/03/16 04:15:19;;;;;;;25.35;13.40;;;;;;;6.33;93.92;100052.88;5094546;28;20107;-39
2024/03/16 04:17:45;;;;;;;23.05;13.10;;;;;;;6.26;93.06;100049.25;5094233;28;20103;-39
2024/03/16 04:20:10;;;;;;;20.45;12.07;;;;;;;6.36;92.66;100057.81;5094358;28;20032;-39
2024/03/16 04:22:36;;;;;;;23.05;13.55;;;;;;;6.24;93.67;100056.50;5094175;28;20543;-39
2024/03/16 04:25:03;;;;;;;25.75;13.20;;;;;;;5.87;95.42;100065.75;5094034;28;20031;-36
2024/03/16 04:27:29;;;;;;;29.27;13.30;;;;;;;6.15;94.71;100063.66;5094486;28;20026;-39
2024/03/16 04:29:55;;;;;;;25.25;13.77;;;;;;;6.03;92.04;100070.25;5094050;28;20054;-38
2024/03/16 04:32:24;;;;;;;22.70;13.75;;;;;;;6.16;91.86;100078.50;5093598;28;20034;-40
2024/03/16 04:34:49;;;;;;;26.23;13.77;;;;;;;5.91;92.59;100076.81;5094129;28;20056;-39
2024/03/16 04:37:14;;;;;;;24.17;13.55;;;;;;;5.83;93.33;100069.72;5094115;28;20419;-39
2024/03/16 04:39:43;;;;;;;32.28;15.75;;;;;;;6.15;93.61;100073.38;5094041;28;20032;-39
2024/03/16 04:42:12;;;;;;;26.55;15.13;;;;;;;6.32;92.31;100072.38;5094338;28;20110;-38
2024/03/16 04:44:38;;;;;;;25.70;14.55;;;;;;;6.02;92.65;100073.88;5093796;28;20483;-38
2024/03/16 04:47:04;;;;;;;24.60;13.73;;;;;;;5.70;94.38;100083.41;5093782;28;20020;-40
2024/03/16 04:49:30;;;;;;;25.88;14.38;;;;;;;5.72;94.75;100078.78;5093952;28;20023;-40
2024/03/16 04:51:55;;;;;;;26.48;14.80;;;;;;;5.93;95.10;100086.22;5094089;28;20103;-40
2024/03/16 04:54:21;;;;;;;29.85;16.00;;;;;;;5.95;94.30;100084.28;5093834;28;20028;-41
2024/03/16 04:56:46;;;;;;;27.13;15.07;;;;;;;6.13;93.30;100081.47;5093871;28;20432;-39
2024/03/16 04:59:11;;;;;;;25.80;15.07;;;;;;;6.12;93.04;100079.81;5093878;28;20051;-38
2024/03/16 05:01:37;;;;;;;27.33;14.50;;;;;;;6.10;93.43;100076.53;5093971;28;20127;-37
2024/03/16 05:04:03;;;;;;;27.60;14.88;;;;;;;5.99;94.00;100079.50;5093991;28;20028;-39
2024/03/16 05:06:31;;;;;;;26.80;15.18;;;;;;;6.10;94.50;100086.28;5094380;28;20031;-38
2024/03/16 05:08:56;;;;;;;27.13;14.88;;;;;;;6.20;93.52;100081.63;5093918;28;20091;-38
2024/03/16 05:11:22;;;;;;;26.75;16.20;;;;;;;6.44;92.89;100078.13;5093437;28;20103;-40
2024/03/16 05:13:47;;;;;;;25.42;15.15;;;;;;;6.38;92.44;100078.81;5093453;28;20027;-39
2024/03/16 05:16:13;;;;;;;28.67;16.25;;;;;;;6.16;94.83;100075.03;5091977;28;20024;-38
2024/03/16 05:18:38;;;;;;;25.45;15.60;;;;;;;6.55;92.41;100080.44;5093284;28;20025;-40
2024/03/16 05:21:04;;;;;;;24.85;14.48;;;;;;;6.71;91.30;100084.03;5093899;28;20020;-38
2024/03/16 05:23:30;;;;;;;24.42;14.48;;;;;;;6.92;89.90;100076.34;5093909;28;20042;-40
2024/03/16 05:25:55;;;;;;;26.27;14.07;;;;;;;7.03;90.03;100088.38;5093488;28;20376;-40
2024/03/16 05:28:21;;;;;;;23.45;14.05;;;;;;;7.22;88.59;100087.13;5093880;28;20019;-40
2024/03/16 05:30:51;;;;;;;22.50;12.02;;;;;;;7.36;87.05;100091.66;5093599;28;20117;-40
2024/03/16 05:33:18;;;;;;;23.00;12.35;;;;;;;7.20;88.80;100097.06;5093411;28;20032;-41
2024/03/16 05:35:43;;;;;;;20.98;12.02;;;;;;;7.35;87.83;100097.13;5093673;28;20031;-40
2024/03/16 05:38:09;;;;;;;25.10;13.38;;;;;;;7.78;86.72;100098.34;5093284;28;20049;-40
2024/03/16 05:40:35;;;;;;;22.73;12.48;;;;;;;7.72;84.54;100096.41;5093555;28;20103;-39
2024/03/16 05:43:01;;;;;;;19.80;12.02;;;;;;;7.86;83.29;100094.00;5093436;28;20040;-38
2024/03/16 05:45:26;;;;;;;23.67;13.13;;;;;;;8.19;81.88;100098.06;5093242;28;20073;-39
2024/03/16 05:47:52;;;;;;;22.85;13.05;;;;;;;8.40;80.22;100091.25;5093084;28;20024;-40
2024/03/16 05:50:17;;;;;;;22.15;13.50;;;;;;;8.73;80.48;100098.88;5093237;28;20024;-40
2024/03/16 05:52:42;;;;;;;22.67;13.23;;;;;;;8.57;80.16;100094.59;5093471;28;20506;-40
2024/03/16 05:55:08;;;;;;;29.38;13.98;;;;;;;8.59;80.94;100101.34;5092992;28;20081;-40
2024/03/16 05:57:33;;;;;;;26.52;13.40;;;;;;;8.86;80.17;100100.91;5093134;28;20031;-41
2024/03/16 05:59:58;;;;;;;23.10;13.50;;;;;;;9.07;79.41;100098.31;5093026;28;20035;-40
2024/03/16 06:02:24;;;;;;;26.00;13.52;;;;;;;9.02;79.19;100100.69;5093005;28;20024;-38
2024/03/16 06:04:50;;;;;;;23.90;12.77;;;;;;;9.64;76.78;100098.56;5093021;28;20032;-40
2024/03/16 06:07:15;;;;;;;20.27;12.80;;;;;;;9.94;74.17;100101.94;5092589;28;20031;-40
2024/03/16 06:09:41;;;;;;;22.60;14.30;;;;;;;9.69;74.29;100093.50;5093023;28;20094;-39
2024/03/16 06:12:06;;;;;;;23.88;12.98;;;;;;;9.72;74.95;100099.25;5092871;28;20522;-39
2024/03/16 06:14:32;;;;;;;23.58;13.02;;;;;;;9.86;73.45;100104.69;5092923;28;20104;-39
2024/03/16 06:16:57;;;;;;;26.20;12.82;;;;;;;10.16;72.65;100105.38;5092445;28;20098;-38
2024/03/16 06:19:23;;;;;;;19.08;11.15;;;;;;;9.99;70.84;100107.47;5092499;28;20039;-40
2024/03/16 06:21:48;;;;;;;18.92;10.57;;;;;;;10.33;70.92;100101.47;5091193;28;20036;-39
2024/03/16 06:24:14;;;;;;;17.58;10.02;;;;;;;10.68;67.87;100101.53;5091894;28;20024;-39
2024/03/16 06:26:41;;;;;;;15.88;9.75;;;;;;;10.95;67.91;100104.34;5092736;28;20032;-39
2024/03/16 06:29:08;;;;;;;13.68;9.25;;;;;;;10.23;67.49;100110.78;5092562;28;20024;-40
2024/03/16 06:31:37;;;;;;;13.98;9.00;;;;;;;10.43;68.16;100113.59;5092206;28;20024;-40
2024/03/16 06:34:06;;;;;;;15.38;10.40;;;;;;;12.12;83.93;100108.56;5092618;28;20028;-36
2024/03/16 06:36:32;;;;;;;13.73;8.68;;;;;;;12.21;64.48;100063.03;5092238;28;20032;-39
2024/03/16 06:38:59;;;;;;;13.43;8.95;;;;;;;12.20;63.55;100112.06;5091185;28;20032;-40
2024/03/16 06:41:24;;;;;;;14.07;9.63;;;;;;;11.90;65.22;100113.28;5091526;28;20035;-40
2024/03/16 06:43:50;;;;;;;15.35;9.32;;;;;;;12.40;65.56;100110.22;5091502;28;20107;-40
2024/03/16 06:46:15;;;;;;;16.42;10.10;;;;;;;12.58;60.89;100116.78;5091756;28;20077;-40
2024/03/16 06:48:40;;;;;;;18.00;10.32;;;;;;;12.50;62.57;100113.28;5091568;28;20074;-41
2024/03/16 06:51:06;;;;;;;19.48;11.38;;;;;;;12.55;60.23;100120.69;5091319;28;20062;-41
2024/03/16 06:53:32;;;;;;;19.40;12.65;;;;;;;12.68;60.62;100112.66;5091407;28;20032;-40
2024/03/16 06:55:57;;;;;;;28.90;14.25;;;;;;;12.83;61.33;100122.25;5091457;28;20020;-40
2024/03/16 06:58:24;;;;;;;20.45;12.90;;;;;;;13.10;59.82;100123.03;5091525;28;20028;-39
2024/03/16 07:00:50;;;;;;;23.65;14.25;;;;;;;13.30;61.29;100112.28;5090862;28;20020;-42
2024/03/16 07:03:15;;;;;;;20.15;12.18;;;;;;;13.35;58.33;100125.03;5091063;28;20027;-42
2024/03/16 07:05:41;;;;;;;18.27;11.60;;;;;;;13.63;58.33;100127.34;5090653;28;20083;-40
2024/03/16 07:08:12;;;;;;;20.27;12.10;;;;;;;13.60;57.04;100128.59;5090104;28;20026;-39
2024/03/16 07:10:38;;;;;;;17.88;11.00;;;;;;;13.28;58.87;100117.00;5091245;28;20059;-40
2024/03/16 07:13:03;;;;;;;21.75;12.38;;;;;;;13.22;59.40;100133.88;5091176;28;20047;-40
2024/03/16 07:15:28;;;;;;;17.58;12.10;;;;;;;13.26;59.72;100137.78;5090766;28;20032;-41
2024/03/16 07:17:54;;;;;;;19.13;12.15;;;;;;;13.83;57.70;100130.72;5090763;28;20020;-40
2024/03/16 07:20:19;;;;;;;18.65;11.82;;;;;;;13.79;57.24;100134.06;5090104;28;20023;-41
2024/03/16 07:22:45;;;;;;;20.38;12.80;;;;;;;13.73;57.12;100133.06;5090258;28;20483;-40
2024/03/16 07:25:10;;;;;;;20.70;12.27;;;;;;;13.96;56.67;100129.81;5089901;28;20395;-40
2024/03/16 07:27:36;;;;;;;22.60;12.82;;;;;;;13.97;57.50;100133.31;5090580;28;20405;-40
2024/03/16 07:30:01;;;;;;;16.65;11.05;;;;;;;14.68;55.10;100132.16;5090610;28;20024;-42
2024/03/16 07:32:27;;;;;;;18.30;12.60;;;;;;;14.67;54.38;100130.50;5090535;28;20452;-39
2024/03/16 07:34:52;;;;;;;20.80;12.95;;;;;;;14.37;55.26;100131.16;5089978;28;20329;-40
2024/03/16 07:37:18;;;;;;;26.98;14.88;;;;;;;14.30;55.85;100137.59;5089917;28;20095;-41
2024/03/16 07:39:43;;;;;;;21.38;13.95;;;;;;;14.71;54.54;100136.25;5090430;28;20024;-39
2024/03/16 07:42:08;;;;;;;19.83;13.02;;;;;;;14.89;54.02;100135.44;5090518;28;20024;-39
2024/03/16 07:44:34;;;;;;;20.75;12.88;;;;;;;14.70;54.62;100130.09;5090326;28;20052;-40
2024/03/16 07:47:02;;;;;;;21.42;13.60;;;;;;;14.92;53.99;100135.81;5090014;28;20024;-40
2024/03/16 07:49:28;;;;;;;20.27;12.52;;;;;;;15.42;52.57;100126.78;5089817;28;20066;-41
2024/03/16 07:51:53;;;;;;;17.25;11.80;;;;;;;15.57;52.55;100129.06;5089714;28;20040;-41
2024/03/16 07:54:19;;;;;;;16.20;10.60;;;;;;;15.49;52.48;100132.06;5089589;28;20099;-41
2024/03/16 07:56:44;;;;;;;15.02;9.73;;;;;;;15.43;51.26;100128.44;5090432;28;20185;-41
2024/03/16 07:59:09;;;;;;;15.70;10.15;;;;;;;15.78;49.99;100125.09;5089372;28;20024;-40
2024/03/16 08:01:36;;;;;;;12.40;8.93;;;;;;;15.33;51.12;100128.16;5089385;28;20024;-39
2024/03/16 08:04:02;;;;;;;16.02;10.60;;;;;;;14.66;52.68;100123.53;5087813;28;20047;-39
2024/03/16 08:06:27;;;;;;;19.83;12.25;;;;;;;14.43;54.45;100129.47;5080077;28;20560;-40
2024/03/16 08:08:53;;;;;;;17.95;11.38;;;;;;;15.07;53.10;100118.56;5088708;28;20096;-40
2024/03/16 08:11:20;;;;;;;17.63;11.13;;;;;;;15.10;52.78;100123.47;5086899;28;20110;-40
2024/03/16 08:13:46;;;;;;;18.75;11.40;;;;;;;15.22;53.91;100114.44;5087871;28;20024;-40
2024/03/16 08:16:11;;;;;;;18.05;11.10;;;;;;;15.57;52.11;100115.66;5088548;28;20465;-40
2024/03/16 08:18:36;;;;;;;18.33;11.57;;;;;;;15.79;51.36;100107.97;5088375;28;20027;-42
2024/03/16 08:21:02;;;;;;;21.58;11.73;;;;;;;15.59;52.60;100109.03;5088970;28;20053;-40
2024/03/16 08:23:28;;;;;;;18.48;11.57;;;;;;;15.98;51.46;100103.34;5088468;28;20501;-40
2024/03/16 08:25:54;;;;;;;16.10;10.52;;;;;;;15.81;51.99;100105.88;5088859;28;20058;-40
2024/03/16 08:28:19;;;;;;;15.85;11.20;;;;;;;15.75;51.56;100098.75;5088386;28;20121;-40
2024/03/16 08:30:45;;;;;;;16.98;10.23;;;;;;;15.97;50.15;100099.84;5087643;28;20035;-41
2024/03/16 08:33:10;;;;;;;16.45;10.07;;;;;;;16.00;50.85;100110.13;5089098;28;20198;-43
2024/03/16 08:35:36;;;;;;;15.13;10.23;;;;;;;15.72;51.22;100113.38;5088229;28;20157;-40
2024/03/16 08:38:01;;;;;;;14.70;9.75;;;;;;;16.37;50.55;100109.94;5089235;28;20048;-39
2024/03/16 08:40:26;;;;;;;14.23;10.20;;;;;;;16.27;50.36;100111.56;5089976;28;20117;-40
2024/03/16 08:42:52;;;;;;;21.77;10.85;;;;;;;16.99;48.91;100106.75;5089949;28;20024;-40
2024/03/16 08:45:18;;;;;;;17.40;10.98;;;;;;;16.51;48.99;100102.47;5090833;28;20509;-41
2024/03/16 08:47:43;;;;;;;17.48;10.27;;;;;;;15.99;50.09;100111.19;5090854;28;20016;-41
2024/03/16 08:50:09;;;;;;;15.13;10.07;;;;;;;15.85;51.14;100107.03;5094285;28;20115;-41
2024/03/16 08:52:35;;;;;;;15.48;10.48;;;;;;;16.02;50.41;100101.84;5093822;28;20051;-40
2024/03/16 08:55:02;;;;;;;14.85;10.18;;;;;;;16.14;49.84;100099.97;5093444;28;20031;-41
2024/03/16 08:57:28;;;;;;;13.20;10.07;;;;;;;16.02;51.66;100105.31;5092964;28;20016;-40
2024/03/16 08:59:53;;;;;;;16.20;10.13;;;;;;;16.13;50.34;100103.72;5091667;28;20111;-41
2024/03/16 09:02:24;;;;;;;15.32;9.93;;;;;;;15.89;52.11;100094.00;5091806;28;20055;-39
2024/03/16 09:04:51;;;;;;;18.13;10.48;;;;;;;15.06;52.82;100093.63;5092099;28;20027;-39
2024/03/16 09:07:16;;;;;;;15.98;10.52;;;;;;;15.05;54.15;100095.47;5092466;28;20300;-40
2024/03/16 09:09:42;;;;;;;17.05;11.15;;;;;;;15.33;53.23;100096.00;5092758;28;20483;-40
2024/03/16 09:12:07;;;;;;;17.23;10.57;;;;;;;15.44;52.76;100092.53;5092744;28;20028;-41
2024/03/16 09:14:33;;;;;;;15.30;10.20;;;;;;;16.21;51.11;100097.19;5092930;28;20055;-42
2024/03/16 09:16:59;;;;;;;15.90;10.15;;;;;;;16.32;50.89;100084.84;5093095;28;20020;-40
2024/03/16 09:19:25;;;;;;;22.42;11.27;;;;;;;15.48;52.79;100095.56;5091459;28;20032;-39
2024/03/16 09:21:51;;;;;;;19.65;10.85;;;;;;;15.28;54.33;100082.44;5091822;28;20036;-40
2024/03/16 09:24:17;;;;;;;16.42;10.45;;;;;;;15.24;54.04;100082.06;5092697;28;20077;-39
2024/03/16 09:26:43;;;;;;;15.73;10.27;;;;;;;14.97;55.55;100074.34;5091628;28;20081;-40
2024/03/16 09:29:09;;;;;;;20.58;10.57;;;;;;;15.32;54.72;100083.59;5091787;28;20020;-40
2024/03/16 09:31:34;;;;;;;15.75;10.60;;;;;;;15.57;54.50;100088.84;5091813;28;20016;-41
2024/03/16 09:34:00;;;;;;;18.15;11.30;;;;;;;15.25;54.59;100075.66;5092548;28;20106;-39
2024/03/16 09:36:25;;;;;;;16.17;10.68;;;;;;;15.23;53.96;100075.03;5092445;28;20028;-40
2024/03/16 09:38:51;;;;;;;17.35;10.85;;;;;;;15.10;53.46;100078.72;5091541;28;20051;-40
2024/03/16 09:41:20;;;;;;;14.82;10.68;;;;;;;14.93;55.42;100083.06;5091932;28;20504;-40
2024/03/16 09:43:47;;;;;;;18.45;11.55;;;;;;;14.91;54.00;100077.94;5091815;28;20138;-40
2024/03/16 09:46:12;;;;;;;15.80;10.68;;;;;;;15.64;53.33;100071.59;5092053;28;20205;-40
2024/03/16 09:48:38;;;;;;;17.65;12.10;;;;;;;15.62;53.15;100064.84;5092084;28;20428;-41
2024/03/16 09:51:04;;;;;;;18.00;11.90;;;;;;;15.11;54.14;100075.00;5091876;28;20069;-40
2024/03/16 09:53:31;;;;;;;17.20;12.32;;;;;;;15.01;54.56;100080.06;5092118;28;20461;-40
2024/03/16 09:56:11;;;;;;;18.50;12.70;;;;;;;14.95;55.09;100067.59;5091144;28;20024;-40
2024/03/16 09:58:37;;;;;;;18.87;13.40;;;;;;;15.17;54.68;100073.28;5088603;28;20019;-41
2024/03/16 10:01:04;;;;;;;19.48;13.45;;;;;;;15.12;54.57;100068.59;5091790;28;20028;-41
2024/03/16 10:03:33;;;;;;;19.98;13.60;;;;;;;15.10;54.26;100068.00;5092387;28;20428;-40
2024/03/16 10:06:04;;;;;;;18.92;13.95;;;;;;;14.99;54.67;100063.41;5092608;28;20035;-40
2024/03/16 10:08:32;;;;;;;21.27;13.77;;;;;;;15.08;53.39;100062.06;5093364;28;20020;-39
2024/03/16 10:11:18;;;;;;;20.20;12.95;;;;;;;15.05;54.67;100057.16;5093187;28;20044;-40
2024/03/16 10:13:53;;;;;;;20.52;14.65;;;;;;;14.93;55.00;100062.44;5091905;28;20516;-39
2024/03/16 10:16:22;;;;;;;19.63;13.98;;;;;;;14.37;57.57;100064.22;5092903;28;20077;-37
2024/03/16 10:18:49;;;;;;;18.80;14.07;;;;;;;14.76;57.10;100048.81;5092636;28;20089;-39
2024/03/16 10:21:16;;;;;;;19.75;13.98;;;;;;;15.47;54.95;100049.16;5092767;28;20023;-40
2024/03/16 10:23:44;;;;;;;19.95;14.23;;;;;;;15.06;55.66;100042.72;5092257;28;20024;-40
2024/03/16 10:26:10;;;;;;;20.27;14.50;;;;;;;15.54;54.46;100047.22;5092904;28;20111;-28
2024/03/16 10:28:36;;;;;;;19.83;14.25;;;;;;;15.86;53.60;100049.66;5092437;28;20379;-27
2024/03/16 10:31:02;;;;;;;24.10;15.18;;;;;;;16.18;53.64;100043.94;5091868;28;20092;-28
2024/03/16 10:33:28;;;;;;;20.77;14.88;;;;;;;15.66;54.38;100041.06;5091389;28;20020;-41
2024/03/16 10:35:55;;;;;;;18.52;12.90;;;;;;;15.41;54.43;100034.00;5090665;28;20328;-40
2024/03/16 10:38:23;;;;;;;18.63;13.32;;;;;;;15.59;53.59;100041.97;5089860;28;20039;-41
2024/03/16 10:40:49;;;;;;;18.73;13.48;;;;;;;15.55;53.67;100027.38;5089787;28;20056;-40
2024/03/16 10:43:16;;;;;;;19.98;13.38;;;;;;;15.70;54.26;100026.94;5089525;28;20069;-41
2024/03/16 10:45:48;;;;;;;19.77;13.75;;;;;;;15.72;53.01;100040.13;5089650;28;20031;-41
2024/03/16 10:48:18;;;;;;;19.08;12.48;;;;;;;15.35;53.72;100019.63;5089501;28;20424;-39
2024/03/16 10:50:46;;;;;;;19.80;13.57;;;;;;;14.94;55.54;100034.59;5090576;28;20502;-39
2024/03/16 10:53:16;;;;;;;20.33;12.90;;;;;;;15.82;53.58;100019.78;5091284;28;20128;-40
2024/03/16 10:55:44;;;;;;;17.88;12.27;;;;;;;15.85;52.15;100018.50;5091127;28;20024;-41
2024/03/16 10:58:25;;;;;;;18.70;12.32;;;;;;;15.59;52.52;100011.63;5091024;28;20031;-42
2024/03/16 11:01:07;;;;;;;17.88;12.10;;;;;;;15.19;53.71;100005.00;5091270;28;20091;-40
2024/03/16 11:03:36;;;;;;;20.70;13.88;;;;;;;15.40;53.62;100011.72;5091102;28;20552;-38
2024/03/16 11:06:23;;;;;;;22.45;14.50;;;;;;;15.25;54.36;100001.41;5091059;28;20089;-40
2024/03/16 11:08:50;;;;;;;24.15;15.43;;;;;;;15.44;54.17;99996.81;5090643;28;20573;-41
2024/03/16 11:11:19;;;;;;;21.60;14.40;;;;;;;15.82;55.31;100001.00;5090170;28;20076;-39
2024/03/16 11:13:59;;;;;;;23.10;15.65;;;;;;;15.58;56.30;99993.94;5091002;28;20024;-40
2024/03/16 11:16:29;;;;;;;21.23;15.27;;;;;;;15.79;55.06;99997.97;5091464;28;20395;-39
2024/03/16 11:19:07;;;;;;;21.38;15.30;;;;;;;15.22;57.88;99983.09;5090118;28;20437;-42